Time;durP1;ratioP1;P1;durP2;ratioP2;P2;SDS_P1;SDS_P2;PMS_P1;PMS_P2;Temp;Humidity;BMP_temperature;BMP_pressure;BME280_temperature;BME280_humidity;BME280_pressure;Samples;Min_cycle;Max_cycle;Signal;HPM_P1;HPM_P2
2023/10/25 00:02:34;;;;;;;9.20;8.20;;;;;;;14.38;51.69;98781.72;10426337;28;20259;-67
2023/10/25 00:07:36;;;;;;;9.17;8.27;;;;;;;14.09;51.96;98821.94;10425275;28;20239;-67
2023/10/25 00:12:38;;;;;;;11.90;7.87;;;;;;;14.13;51.54;98803.47;10432475;28;20232;-67
2023/10/25 00:17:40;;;;;;;12.00;8.33;;;;;;;13.87;51.83;98836.91;10438225;28;20232;-67
2023/10/25 00:22:42;;;;;;;9.90;7.43;;;;;;;13.53;52.68;98813.22;10435854;28;20224;-67
2023/10/25 00:27:43;;;;;;;11.93;7.70;;;;;;;13.79;52.16;98816.56;10433096;28;21281;-67
2023/10/25 00:32:47;;;;;;;34.17;8.97;;;;;;;13.44;52.37;98871.00;10434681;28;20707;-66
2023/10/25 00:37:49;;;;;;;15.30;8.70;;;;;;;13.62;52.78;98778.78;10431998;28;20231;-67
2023/10/25 00:42:50;;;;;;;21.27;8.40;;;;;;;13.45;52.48;98830.47;10431291;28;20259;-66
2023/10/25 00:47:52;;;;;;;20.73;7.83;;;;;;;14.10;52.00;98771.63;10433548;28;20242;-67
2023/10/25 00:52:54;;;;;;;17.47;8.07;;;;;;;13.78;52.00;98802.28;10433586;28;20224;-67
2023/10/25 00:57:55;;;;;;;19.07;8.73;;;;;;;13.96;52.38;98754.88;10431507;28;20235;-67
2023/10/25 01:02:59;;;;;;;11.90;8.20;;;;;;;14.68;50.44;98746.59;10431219;28;20240;-67
2023/10/25 01:08:00;;;;;;;14.50;8.40;;;;;;;11.95;55.30;98847.56;10409301;28;20240;-67
2023/10/25 01:13:02;;;;;;;21.07;8.03;;;;;;;13.03;54.05;98697.91;10390953;28;20473;-67
2023/10/25 01:18:04;;;;;;;22.23;8.63;;;;;;;13.15;52.50;98740.94;10391164;28;20236;-67
2023/10/25 01:23:06;;;;;;;28.60;7.60;;;;;;;13.46;52.14;98766.78;10392408;28;20318;-66
2023/10/25 01:28:08;;;;;;;45.30;8.50;;;;;;;12.52;52.60;98899.38;10389951;28;20271;-67
2023/10/25 01:33:10;;;;;;;42.50;8.70;;;;;;;13.07;52.89;98783.16;10390176;28;20310;-67
2023/10/25 01:38:12;;;;;;;42.77;9.10;;;;;;;13.24;52.44;98748.44;10389237;28;20236;-67
2023/10/25 01:43:14;;;;;;;36.30;7.20;;;;;;;13.33;51.98;98751.69;10388502;28;20275;-66
2023/10/25 01:48:15;;;;;;;15.17;7.07;;;;;;;13.53;51.64;98715.63;10388215;28;20796;-67
2023/10/25 01:53:17;;;;;;;8.50;6.37;;;;;;;14.41;49.54;98719.38;10387529;28;20592;-66
2023/10/25 01:58:19;;;;;;;6.73;6.00;;;;;;;14.36;49.66;98749.66;10388703;28;20232;-66
2023/10/25 02:03:21;;;;;;;7.77;6.37;;;;;;;14.04;49.79;98768.78;10388735;28;20259;-66
2023/10/25 02:08:22;;;;;;;16.47;6.33;;;;;;;13.34;51.13;98822.34;10391302;28;20298;-66
2023/10/25 02:13:24;;;;;;;26.63;7.80;;;;;;;12.88;51.77;98862.91;10418699;28;20230;-67
2023/10/25 02:18:26;;;;;;;39.27;7.87;;;;;;;11.61;53.71;98845.03;10425262;28;20236;-67
2023/10/25 02:23:27;;;;;;;19.50;7.40;;;;;;;11.63;54.49;98785.91;10431794;28;20513;-67
2023/10/25 02:28:29;;;;;;;16.83;8.17;;;;;;;11.13;55.74;98796.41;10427496;28;20228;-66
2023/10/25 02:33:31;;;;;;;24.60;8.50;;;;;;;10.38;58.21;98724.56;10428076;28;20584;-67
2023/10/25 02:38:33;;;;;;;35.40;9.13;;;;;;;10.48;58.41;98636.72;10429924;28;20748;-67
2023/10/25 02:43:34;;;;;;;53.47;9.53;;;;;;;10.38;58.24;98622.94;10428145;28;20734;-67
2023/10/25 02:48:36;;;;;;;44.33;10.03;;;;;;;11.73;56.05;98518.25;10423095;28;20238;-67
2023/10/25 02:53:38;;;;;;;40.87;9.73;;;;;;;13.36;51.57;98654.50;10427465;28;20672;-67
2023/10/25 02:58:40;;;;;;;38.37;9.57;;;;;;;12.37;53.78;98679.66;10429164;28;20734;-67
2023/10/25 03:03:42;;;;;;;50.23;9.23;;;;;;;11.81;55.93;98584.13;10424872;28;20715;-67
2023/10/25 03:08:43;;;;;;;25.23;8.90;;;;;;;13.41;52.18;98565.13;10426533;28;20233;-67
2023/10/25 03:13:46;;;;;;;43.60;9.07;;;;;;;13.08;52.72;98653.22;10429534;28;20480;-67
2023/10/25 03:18:48;;;;;;;23.57;8.03;;;;;;;13.94;50.50;98623.31;10427538;28;20231;-67
2023/10/25 03:23:50;;;;;;;44.97;9.73;;;;;;;11.31;55.80;98726.91;10427226;28;20711;-67
2023/10/25 03:28:51;;;;;;;24.47;8.17;;;;;;;13.38;51.98;98595.13;10426582;28;20232;-67
2023/10/25 03:33:53;;;;;;;22.33;7.33;;;;;;;14.15;50.18;98618.41;10426853;28;20750;-69
2023/10/25 03:38:55;;;;;;;20.37;7.37;;;;;;;14.57;49.10;98597.47;10426012;28;20297;-66
2023/10/25 03:43:56;;;;;;;9.53;6.80;;;;;;;11.93;53.38;98697.66;10427364;28;20729;-66
2023/10/25 03:48:58;;;;;;;12.40;7.37;;;;;;;11.13;55.65;98617.03;10435740;28;20238;-67
2023/10/25 03:54:00;;;;;;;12.43;6.60;;;;;;;10.20;56.51;98736.72;10433991;28;20334;-66
2023/10/25 03:59:02;;;;;;;18.17;7.00;;;;;;;11.01;55.63;98601.66;10433436;28;20254;-66
2023/10/25 04:04:04;;;;;;;16.77;6.87;;;;;;;12.28;52.35;98615.81;10433271;28;20244;-66
2023/10/25 04:09:08;;;;;;;7.53;6.53;;;;;;;13.39;50.64;98565.34;10433120;28;20239;-66
2023/10/25 04:14:09;;;;;;;31.87;7.73;;;;;;;13.81;49.73;98596.69;10434808;28;20321;-65
2023/10/25 04:19:11;;;;;;;32.93;7.70;;;;;;;12.26;51.48;98728.69;10433132;28;20880;-66
2023/10/25 04:24:13;;;;;;;10.87;6.43;;;;;;;13.58;49.99;98559.84;10434091;28;20232;-66
2023/10/25 04:29:15;;;;;;;21.47;6.30;;;;;;;11.61;53.31;98633.34;10433284;28;20721;-67
2023/10/25 04:34:17;;;;;;;16.57;5.30;;;;;;;12.74;50.92;98588.44;10432993;28;20286;-66
2023/10/25 04:39:18;;;;;;;14.80;6.20;;;;;;;13.13;49.88;98588.06;10434439;28;20248;-67
2023/10/25 04:44:20;;;;;;;8.70;5.20;;;;;;;13.08;49.48;98629.03;10433587;28;20286;-66
2023/10/25 04:49:22;;;;;;;34.23;5.90;;;;;;;9.25;56.18;98726.16;10433499;28;20231;-66
2023/10/25 04:54:23;;;;;;;35.63;6.57;;;;;;;10.06;56.16;98554.16;10431584;28;20317;-66
2023/10/25 04:59:28;;;;;;;40.73;7.43;;;;;;;10.46;55.29;98579.91;10432337;28;20318;-66
2023/10/25 05:04:30;;;;;;;28.90;7.17;;;;;;;12.95;51.50;98441.28;10433404;28;20727;-66
2023/10/25 05:09:32;;;;;;;56.17;8.63;;;;;;;10.58;56.09;98463.19;10432760;28;20719;-66
2023/10/25 05:14:35;;;;;;;51.57;8.40;;;;;;;10.95;55.53;98425.88;10434531;28;20232;-66
2023/10/25 05:19:37;;;;;;;45.53;6.87;;;;;;;10.78;56.43;98380.13;10432504;28;20245;-66
2023/10/25 05:24:39;;;;;;;35.30;5.53;;;;;;;11.42;54.55;98393.25;10429717;28;20235;-66
2023/10/25 05:29:40;;;;;;;10.57;4.67;;;;;;;12.22;51.69;98480.75;10430194;28;20231;-66
2023/10/25 05:34:43;;;;;;;17.83;4.40;;;;;;;12.25;51.51;98498.25;10429769;28;20270;-66
2023/10/25 05:39:45;;;;;;;11.23;4.27;;;;;;;12.74;51.29;98380.94;10430985;28;20479;-67
2023/10/25 05:44:48;;;;;;;4.80;4.10;;;;;;;12.83;50.91;98409.06;10430484;28;20619;-66
2023/10/25 05:49:50;;;;;;;18.60;4.50;;;;;;;10.23;56.63;98404.00;10432050;28;20282;-67
2023/10/25 05:54:52;;;;;;;32.60;5.23;;;;;;;9.45;56.70;98555.31;10431875;28;20266;-66
2023/10/25 05:59:54;;;;;;;28.57;5.70;;;;;;;11.70;54.24;98296.28;10430628;28;20239;-66
2023/10/25 06:04:57;;;;;;;13.53;6.53;;;;;;;12.52;51.43;98343.13;10426663;28;20756;-66
2023/10/25 06:09:59;;;;;;;32.67;6.23;;;;;;;11.61;53.47;98357.38;10426093;28;20600;-66
2023/10/25 06:15:02;;;;;;;19.87;4.73;;;;;;;11.95;52.57;98339.00;10428325;28;20224;-66
2023/10/25 06:20:04;;;;;;;30.40;4.80;;;;;;;11.40;52.80;98420.25;10430633;28;20235;-66
2023/10/25 06:25:09;;;;;;;32.90;5.17;;;;;;;12.46;50.75;98385.06;10428754;28;20619;-66
2023/10/25 06:30:14;;;;;;;12.23;3.90;;;;;;;13.13;49.98;98367.84;10426363;28;20303;-66
2023/10/25 06:35:16;;;;;;;38.83;5.73;;;;;;;11.89;53.36;98357.88;10426095;28;20544;-66
2023/10/25 06:40:18;;;;;;;67.20;6.27;;;;;;;10.80;54.58;98466.34;10429102;28;20586;-66
2023/10/25 06:45:21;;;;;;;61.87;6.63;;;;;;;9.88;56.40;98457.84;10429621;28;20315;-66
2023/10/25 06:50:25;;;;;;;36.00;5.17;;;;;;;10.75;55.27;98367.19;10425580;28;20697;-66
2023/10/25 06:55:27;;;;;;;71.90;6.43;;;;;;;9.95;56.26;98405.97;10427171;28;20244;-66
2023/10/25 07:00:29;;;;;;;11.87;4.30;;;;;;;12.04;52.93;98291.25;10425443;28;20236;-66
2023/10/25 07:05:31;;;;;;;13.13;6.37;;;;;;;11.59;54.61;98275.59;10425820;28;20730;-66
2023/10/25 07:10:33;;;;;;;7.23;3.83;;;;;;;12.05;52.20;98348.38;10425905;28;20238;-65
2023/10/25 07:15:35;;;;;;;7.73;3.30;;;;;;;12.19;52.58;98329.16;10429676;28;20318;-66
2023/10/25 07:20:37;;;;;;;24.77;3.90;;;;;;;10.22;56.09;98461.16;10432788;28;20306;-66
2023/10/25 07:25:39;;;;;;;7.87;3.90;;;;;;;10.96;55.05;98394.59;10436799;28;20265;-65
2023/10/25 07:30:41;;;;;;;4.20;3.77;;;;;;;11.69;54.62;98277.75;10437599;28;20321;-67
2023/10/25 07:35:42;;;;;;;4.20;3.80;;;;;;;11.89;52.13;98455.19;10436012;28;20309;-66
2023/10/25 07:40:44;;;;;;;5.33;4.00;;;;;;;10.56;56.11;98400.25;10434822;28;20818;-66
2023/10/25 07:45:46;;;;;;;8.73;4.13;;;;;;;12.21;53.85;98242.31;10436979;28;20251;-66
2023/10/25 07:50:48;;;;;;;5.73;3.70;;;;;;;11.87;54.67;98256.25;10436410;28;20228;-66
2023/10/25 07:55:50;;;;;;;5.67;4.30;;;;;;;12.91;52.29;98338.91;10437480;28;20328;-66
2023/10/25 08:00:55;;;;;;;5.40;4.03;;;;;;;13.51;51.34;98307.38;10433440;28;24251;-65
2023/10/25 08:05:57;;;;;;;4.30;3.90;;;;;;;14.29;49.67;98312.25;10436158;28;20235;-65
2023/10/25 08:11:03;;;;;;;4.50;3.70;;;;;;;13.85;50.76;98320.88;10436360;28;20247;-66
2023/10/25 08:16:05;;;;;;;5.50;4.83;;;;;;;11.63;56.07;98304.41;10434629;28;20258;-67
2023/10/25 08:21:12;;;;;;;8.77;3.93;;;;;;;12.53;53.47;98353.59;10435134;28;20745;-67
2023/10/25 08:26:14;;;;;;;4.23;3.80;;;;;;;12.96;53.08;98342.75;10434660;28;20235;-67
2023/10/25 08:31:17;;;;;;;3.67;3.37;;;;;;;14.15;50.53;98290.25;10433486;28;20224;-67
2023/10/25 08:36:19;;;;;;;5.03;3.77;;;;;;;13.95;50.72;98296.06;10430026;28;20364;-66
2023/10/25 08:41:24;;;;;;;3.80;3.50;;;;;;;14.04;50.63;98316.94;10432681;28;20227;-66
2023/10/25 08:46:28;;;;;;;5.07;3.60;;;;;;;14.68;49.98;98245.00;10432580;28;20243;-66
2023/10/25 08:51:29;;;;;;;5.10;3.97;;;;;;;14.13;50.79;98325.44;10437712;28;20256;-66
2023/10/25 08:56:31;;;;;;;6.57;5.70;;;;;;;12.84;54.12;98321.28;10433166;28;20318;-66
2023/10/25 09:01:33;;;;;;;6.80;6.10;;;;;;;13.41;52.26;98371.66;10433243;28;20247;-66
2023/10/25 09:06:35;;;;;;;5.03;4.47;;;;;;;13.70;52.47;98302.63;10431905;28;20228;-67
2023/10/25 09:11:42;;;;;;;4.87;3.87;;;;;;;14.38;50.87;98259.66;10434309;28;20287;-65
2023/10/25 09:16:45;;;;;;;4.43;3.77;;;;;;;14.32;50.73;98317.13;10434442;28;20724;-66
2023/10/25 09:21:46;;;;;;;5.77;4.10;;;;;;;14.91;50.79;98212.50;10432000;28;20421;-66
2023/10/25 09:26:48;;;;;;;5.37;4.70;;;;;;;14.09;51.21;98323.47;10430432;28;20239;-67
2023/10/25 09:31:52;;;;;;;4.80;4.30;;;;;;;14.93;50.37;98245.38;10432370;28;20239;-65
2023/10/25 09:36:53;;;;;;;5.73;3.80;;;;;;;14.65;50.87;98237.44;10431308;28;20227;-66
2023/10/25 09:41:58;;;;;;;4.00;3.57;;;;;;;13.60;51.87;98370.44;10430005;28;20247;-67
2023/10/25 09:47:03;;;;;;;3.83;3.43;;;;;;;14.55;50.79;98273.91;10429309;28;20255;-67
2023/10/25 09:52:25;;;;;;;5.20;4.40;;;;;;;12.98;54.96;98260.13;10431983;28;20259;-66
2023/10/25 09:57:29;;;;;;;6.27;4.30;;;;;;;13.82;53.32;98186.97;10432647;28;20233;-66
2023/10/25 10:02:54;;;;;;;5.00;4.47;;;;;;;12.28;56.28;98226.91;10430632;28;20247;-65
2023/10/25 10:08:16;;;;;;;4.50;4.10;;;;;;;13.89;54.41;98058.56;10429974;28;20746;-66
2023/10/25 10:13:20;;;;;;;4.90;4.03;;;;;;;14.42;52.58;98085.06;10428720;28;20711;-67
2023/10/25 10:18:22;;;;;;;4.73;4.20;;;;;;;13.54;54.35;98107.22;10430168;28;20228;-67
2023/10/25 10:23:36;;;;;;;5.53;4.70;;;;;;;14.40;52.10;98085.31;10430973;28;20233;-67
2023/10/25 10:28:43;;;;;;;6.67;4.80;;;;;;;14.25;53.16;98085.13;10429043;28;20319;-67
2023/10/25 10:33:45;;;;;;;10.20;4.30;;;;;;;14.07;52.75;98118.50;10427787;28;20239;-67
2023/10/25 10:39:10;;;;;;;4.80;4.30;;;;;;;14.31;53.64;98014.19;10427747;28;20224;-67
2023/10/25 10:44:12;;;;;;;4.87;4.10;;;;;;;13.45;54.55;98075.41;10430342;28;20326;-67
2023/10/25 10:49:18;;;;;;;6.63;4.30;;;;;;;13.80;54.29;98066.25;10424842;28;20610;-67
2023/10/25 10:54:20;;;;;;;6.57;3.90;;;;;;;13.40;54.24;98149.75;10426186;28;20232;-67
2023/10/25 10:59:24;;;;;;;5.60;4.40;;;;;;;13.37;56.28;98007.84;10425669;28;20286;-67
2023/10/25 11:06:11;;;;;;;6.77;4.83;;;;;;;10.92;62.89;97919.69;10520790;27;22384;-67
2023/10/25 11:11:13;;;;;;;5.70;4.63;;;;;;;10.68;63.07;97987.34;10385821;28;20258;-67
2023/10/25 11:16:16;;;;;;;6.67;5.17;;;;;;;12.05;60.57;97833.66;10418623;28;20674;-67
2023/10/25 11:21:17;;;;;;;8.97;5.53;;;;;;;11.33;61.99;97883.13;10418557;28;20626;-67
2023/10/25 11:26:19;;;;;;;7.03;5.47;;;;;;;10.22;64.88;97916.63;10419111;28;20242;-67
2023/10/25 11:31:22;;;;;;;6.03;4.87;;;;;;;10.74;64.46;97857.19;10418637;28;20307;-66
2023/10/25 11:36:27;;;;;;;8.83;4.77;;;;;;;10.04;66.53;97820.47;10419543;28;20231;-67
2023/10/25 11:41:29;;;;;;;7.90;5.17;;;;;;;9.66;67.84;97801.06;10421544;28;20326;-66
2023/10/25 11:46:38;;;;;;;5.60;4.77;;;;;;;10.97;63.85;97821.63;10418419;28;22387;-66
2023/10/25 11:51:40;;;;;;;6.03;4.47;;;;;;;11.32;62.42;97860.91;10417817;28;20575;-66
2023/10/25 11:56:41;;;;;;;5.53;4.43;;;;;;;10.79;63.60;97904.69;10419185;28;20236;-66
2023/10/25 12:01:44;;;;;;;5.33;4.83;;;;;;;12.46;60.80;97762.69;10420406;28;20240;-67
2023/10/25 12:06:46;;;;;;;4.67;4.27;;;;;;;11.21;62.10;97886.63;10414895;28;20327;-66
2023/10/25 12:11:47;;;;;;;4.23;3.83;;;;;;;11.90;59.73;97938.72;10419092;28;20248;-66
2023/10/25 12:16:49;;;;;;;4.00;3.60;;;;;;;12.29;59.62;97930.84;10396136;28;20691;-66
2023/10/25 12:21:56;;;;;;;7.10;4.33;;;;;;;13.23;57.97;97844.31;10374259;28;21897;-66
2023/10/25 12:26:58;;;;;;;6.77;4.97;;;;;;;13.57;56.18;97907.88;10367280;28;20233;-67
2023/10/25 12:32:00;;;;;;;5.60;4.63;;;;;;;12.10;59.48;97979.31;10372013;28;20230;-67
2023/10/25 12:37:02;;;;;;;3.77;3.40;;;;;;;12.17;60.24;97888.81;10367830;28;20233;-66
2023/10/25 12:42:04;;;;;;;3.63;3.33;;;;;;;11.94;61.65;97803.16;10372050;28;20261;-66
2023/10/25 12:47:06;;;;;;;3.40;3.10;;;;;;;11.64;63.15;97806.91;10344059;28;20283;-66
2023/10/25 12:52:08;;;;;;;3.77;3.00;;;;;;;11.24;63.92;97862.09;10361855;28;20320;-66
2023/10/25 12:57:10;;;;;;;4.03;3.53;;;;;;;11.85;62.79;97802.75;10369620;28;20311;-66
2023/10/25 13:02:12;;;;;;;4.10;3.43;;;;;;;11.44;63.24;97850.97;10343694;28;20248;-66
2023/10/25 13:07:14;;;;;;;3.43;3.07;;;;;;;11.49;63.55;97826.16;10346324;28;20751;-67
2023/10/25 13:12:15;;;;;;;3.83;3.20;;;;;;;12.48;61.26;97747.19;10346639;28;20225;-66
2023/10/25 13:17:17;;;;;;;3.37;2.90;;;;;;;12.21;61.87;97800.66;10347517;28;20327;-66
2023/10/25 13:22:21;;;;;;;4.63;3.00;;;;;;;12.61;61.66;97742.56;10348359;28;20230;-66
2023/10/25 13:27:24;;;;;;;3.03;2.77;;;;;;;12.23;63.63;97723.47;10349677;28;20241;-66
2023/10/25 13:32:26;;;;;;;4.53;2.60;;;;;;;12.28;63.55;97730.78;10345026;28;20260;-66
2023/10/25 13:37:29;;;;;;;2.73;2.40;;;;;;;11.62;65.32;97742.00;10347092;28;20312;-66
2023/10/25 13:42:30;;;;;;;2.10;2.00;;;;;;;11.75;65.59;97744.41;10347010;28;20232;-68
2023/10/25 13:47:32;;;;;;;2.50;2.30;;;;;;;11.73;65.14;97778.69;10348240;28;20478;-69
2023/10/25 13:52:34;;;;;;;2.40;2.20;;;;;;;12.81;63.33;97659.63;10349153;28;20237;-69
2023/10/25 13:57:38;;;;;;;2.00;1.83;;;;;;;11.99;65.13;97709.44;10347084;28;20246;-69
2023/10/25 14:02:40;;;;;;;2.00;1.90;;;;;;;12.28;64.61;97701.28;10351854;28;20237;-69
2023/10/25 14:07:42;;;;;;;2.10;2.00;;;;;;;11.97;64.99;97746.41;10348519;28;20399;-68
2023/10/25 14:12:44;;;;;;;2.27;1.90;;;;;;;11.97;65.48;97762.47;10370041;28;20264;-69
2023/10/25 14:17:45;;;;;;;2.00;1.90;;;;;;;12.34;64.88;97682.34;10386211;28;20327;-69
2023/10/25 14:22:47;;;;;;;2.03;1.90;;;;;;;12.70;64.31;97676.66;10378219;28;20225;-68
2023/10/25 14:27:49;;;;;;;3.73;1.90;;;;;;;11.99;66.04;97706.75;10368750;28;20240;-66
2023/10/25 14:32:51;;;;;;;3.40;2.00;;;;;;;11.30;67.60;97811.31;10388260;28;20283;-68
2023/10/25 14:37:53;;;;;;;3.00;1.90;;;;;;;12.00;65.58;97725.28;10391632;28;22047;-68
2023/10/25 14:42:54;;;;;;;3.07;2.07;;;;;;;12.41;64.86;97676.78;10387267;28;20735;-68
2023/10/25 14:47:56;;;;;;;1.90;1.80;;;;;;;12.78;63.63;97646.69;10384654;28;20755;-64
2023/10/25 14:52:58;;;;;;;1.97;1.87;;;;;;;11.57;65.49;97774.88;10384996;28;20217;-67
2023/10/25 14:58:00;;;;;;;1.80;1.70;;;;;;;11.57;65.73;97769.50;10381569;28;20236;-66
2023/10/25 15:03:02;;;;;;;2.00;1.80;;;;;;;11.15;66.54;97799.22;10384733;28;20682;-66
2023/10/25 15:08:03;;;;;;;1.70;1.60;;;;;;;12.15;64.87;97676.44;10383557;28;20252;-64
2023/10/25 15:13:05;;;;;;;1.67;1.57;;;;;;;11.83;65.93;97692.31;10385159;28;20225;-68
2023/10/25 15:18:07;;;;;;;1.93;1.80;;;;;;;11.88;66.53;97620.03;10385213;28;20244;-66
2023/10/25 15:23:09;;;;;;;1.73;1.50;;;;;;;11.55;67.55;97656.44;10383660;28;20239;-63
2023/10/25 15:28:11;;;;;;;1.97;1.80;;;;;;;12.06;65.92;97607.41;10382546;28;20228;-68
2023/10/25 15:33:13;;;;;;;2.67;1.80;;;;;;;10.93;68.39;97673.28;10381661;28;20255;-70
2023/10/25 15:38:15;;;;;;;2.13;1.90;;;;;;;12.37;65.30;97565.72;10380446;28;20319;-68
2023/10/25 15:43:16;;;;;;;1.60;1.50;;;;;;;10.64;67.92;97771.38;10380989;28;20227;-68
2023/10/25 15:48:18;;;;;;;1.93;1.73;;;;;;;11.69;65.51;97658.84;10383186;28;20232;-67
2023/10/25 15:53:20;;;;;;;1.80;1.70;;;;;;;11.70;64.56;97733.63;10390541;28;20238;-67
2023/10/25 15:58:22;;;;;;;2.03;1.67;;;;;;;11.75;65.02;97714.94;10389133;28;20773;-67
2023/10/25 16:03:23;;;;;;;1.93;1.60;;;;;;;12.40;63.65;97618.88;10388951;28;20249;-67
2023/10/25 16:08:25;;;;;;;1.87;1.53;;;;;;;11.32;65.47;97756.50;10390752;28;20258;-68
2023/10/25 16:13:28;;;;;;;2.10;1.53;;;;;;;12.50;62.84;97677.19;10393519;28;20349;-68
2023/10/25 16:18:33;;;;;;;1.73;1.50;;;;;;;11.95;63.90;97716.34;10387835;28;20332;-69
2023/10/25 16:23:41;;;;;;;1.70;1.60;;;;;;;12.63;63.44;97611.63;10357782;28;22352;-65
2023/10/25 16:28:44;;;;;;;3.00;1.80;;;;;;;12.35;63.33;97700.06;10354400;28;20275;-68
2023/10/25 16:33:47;;;;;;;2.00;1.57;;;;;;;;;;10354964;28;20229;-68
2023/10/25 16:38:49;;;;;;;2.43;1.90;;;;;;;12.91;62.29;97648.19;10384572;28;20738;-66
2023/10/25 16:43:50;;;;;;;1.70;1.60;;;;;;;11.13;65.57;97803.22;10360404;28;20594;-69
2023/10/25 16:48:52;;;;;;;2.63;1.70;;;;;;;10.77;66.17;97831.88;10350509;28;20233;-68
2023/10/25 16:53:54;;;;;;;2.03;1.60;;;;;;;11.91;64.82;97675.00;10347853;28;20243;-68
2023/10/25 16:58:56;;;;;;;2.17;1.70;;;;;;;12.14;64.74;97626.56;10349930;28;20244;-67
2023/10/25 17:03:58;;;;;;;1.70;1.60;;;;;;;11.29;65.85;97735.53;10352097;28;20264;-68
2023/10/25 17:09:00;;;;;;;1.97;1.77;;;;;;;11.71;65.08;97689.72;10354631;28;20288;-68
2023/10/25 17:14:02;;;;;;;1.70;1.60;;;;;;;11.31;66.33;97724.59;10354631;28;20248;-68
2023/10/25 17:19:04;;;;;;;1.73;1.63;;;;;;;12.60;63.55;97631.72;10353974;28;20244;-68
2023/10/25 17:24:09;;;;;;;1.50;1.40;;;;;;;11.21;65.89;97784.09;10355388;28;20363;-68
2023/10/25 17:29:11;;;;;;;2.03;1.70;;;;;;;12.63;63.05;97643.84;10345824;28;20536;-68
2023/10/25 17:34:14;;;;;;;1.80;1.70;;;;;;;11.84;63.65;97768.16;10348495;28;20237;-68
2023/10/25 17:39:17;;;;;;;1.60;1.50;;;;;;;11.23;64.07;97875.69;10347408;28;20283;-68
2023/10/25 17:44:19;;;;;;;1.70;1.60;;;;;;;11.85;63.73;97783.19;10346099;28;20233;-68
2023/10/25 17:49:21;;;;;;;1.60;1.50;;;;;;;11.23;65.77;97784.69;10347230;28;20315;-68
2023/10/25 17:54:24;;;;;;;1.93;1.80;;;;;;;13.06;61.03;97753.06;10346698;28;20226;-68
2023/10/25 17:59:27;;;;;;;1.80;1.70;;;;;;;12.44;61.28;97823.03;10344684;28;20259;-68
2023/10/25 18:04:30;;;;;;;2.13;1.63;;;;;;;11.95;62.72;97818.19;10347157;28;20265;-67
2023/10/25 18:09:32;;;;;;;2.40;2.20;;;;;;;12.60;61.58;97808.00;10344667;28;20229;-67
2023/10/25 18:14:37;;;;;;;1.67;1.57;;;;;;;12.41;61.63;97827.00;10345024;28;20472;-67
2023/10/25 18:19:38;;;;;;;2.53;1.63;;;;;;;12.90;60.70;97803.03;10346687;28;20257;-70
2023/10/25 18:24:42;;;;;;;1.43;1.40;;;;;;;12.36;61.42;97862.59;10346011;28;20612;-70
2023/10/25 18:29:47;;;;;;;1.10;1.10;;;;;;;11.34;62.30;97947.19;10350794;28;20244;-70
2023/10/25 18:35:08;;;;;;;1.50;1.40;;;;;;;12.37;59.71;97927.78;10377788;28;20250;-70
2023/10/25 18:40:10;;;;;;;1.30;1.30;;;;;;;12.11;60.12;97947.94;10346540;28;20312;-67
2023/10/25 18:45:13;;;;;;;2.53;1.33;;;;;;;12.33;60.39;97873.81;10348960;28;20264;-66
2023/10/25 18:50:15;;;;;;;1.70;1.60;;;;;;;11.54;60.70;98035.19;10345360;28;20209;-67
2023/10/25 18:55:17;;;;;;;1.37;1.33;;;;;;;12.66;59.52;97893.69;10345473;28;20675;-66
2023/10/25 19:00:18;;;;;;;1.57;1.47;;;;;;;11.38;60.97;98089.44;10346354;28;20217;-70
2023/10/25 19:05:23;;;;;;;1.60;1.50;;;;;;;11.63;61.77;98027.66;10348223;28;20323;-66
2023/10/25 19:10:44;;;;;;;1.50;1.50;;;;;;;11.57;60.85;98060.69;10348214;28;20237;-69
2023/10/25 19:15:46;;;;;;;1.90;1.70;;;;;;;11.51;61.53;98032.19;10343647;28;20244;-67
2023/10/25 19:20:48;;;;;;;1.60;1.60;;;;;;;12.26;59.97;97980.41;10345003;28;20790;-67
2023/10/25 19:25:50;;;;;;;1.90;1.80;;;;;;;13.06;58.20;97951.75;10348491;28;20341;-67
2023/10/25 19:30:52;;;;;;;2.47;2.27;;;;;;;12.76;59.78;97945.91;10354629;28;20232;-67
2023/10/25 19:35:54;;;;;;;2.00;1.90;;;;;;;13.07;59.14;97960.63;10353169;28;20636;-68
2023/10/25 19:40:56;;;;;;;2.27;1.77;;;;;;;13.09;58.26;97971.91;10353943;28;22230;-68
2023/10/25 19:45:58;;;;;;;1.90;1.80;;;;;;;12.45;59.16;98064.22;10352430;28;20248;-68
2023/10/25 19:51:00;;;;;;;1.70;1.60;;;;;;;12.71;57.89;98072.75;10351862;28;20240;-67
2023/10/25 19:56:02;;;;;;;1.40;1.40;;;;;;;13.19;57.24;98012.34;10351646;28;20237;-70
2023/10/25 20:01:04;;;;;;;2.00;1.90;;;;;;;12.31;58.53;98095.03;10352842;28;20233;-70
2023/10/25 20:06:09;;;;;;;1.93;1.83;;;;;;;12.36;58.62;98087.06;10352283;28;20239;-69
2023/10/25 20:11:10;;;;;;;1.67;1.57;;;;;;;11.96;58.66;98152.19;10350533;28;20245;-71
2023/10/25 20:16:12;;;;;;;1.40;1.40;;;;;;;12.36;59.27;98049.53;10354272;28;20237;-67
2023/10/25 20:21:14;;;;;;;1.70;1.60;;;;;;;12.40;58.61;98058.75;10359029;28;20225;-68
2023/10/25 20:26:16;;;;;;;1.80;1.70;;;;;;;12.44;58.63;98094.75;10352456;28;20228;-68
2023/10/25 20:31:33;;;;;;;2.03;1.60;;;;;;;11.55;60.02;98212.81;10351584;28;20607;-67
2023/10/25 20:36:36;;;;;;;1.60;1.50;;;;;;;12.28;59.12;98117.78;10358057;28;20323;-67
2023/10/25 20:41:37;;;;;;;1.83;1.40;;;;;;;11.82;60.19;98178.41;10379272;28;20233;-67
2023/10/25 20:46:39;;;;;;;1.70;1.60;;;;;;;12.74;58.23;98093.75;10346125;28;20287;-67
2023/10/25 20:51:41;;;;;;;1.63;1.53;;;;;;;12.30;58.77;98153.22;10345781;28;20233;-67
2023/10/25 20:56:42;;;;;;;1.73;1.63;;;;;;;13.26;56.99;98064.06;10358887;28;20327;-67
2023/10/25 21:01:44;;;;;;;1.67;1.57;;;;;;;11.86;58.40;98251.94;10385479;28;20327;-67
2023/10/25 21:06:46;;;;;;;1.37;1.37;;;;;;;13.22;56.89;98045.97;10387249;28;20225;-68
2023/10/25 21:11:48;;;;;;;3.27;1.30;;;;;;;13.00;57.01;98060.13;10384136;28;20232;-67
2023/10/25 21:16:49;;;;;;;1.60;1.50;;;;;;;12.39;57.70;98124.16;10386773;28;20236;-68
2023/10/25 21:21:55;;;;;;;1.40;1.30;;;;;;;12.19;58.35;98146.81;10390485;28;20228;-67
2023/10/25 21:26:57;;;;;;;1.53;1.43;;;;;;;13.32;55.54;98069.53;10385127;28;22551;-67
2023/10/25 21:31:58;;;;;;;1.73;1.53;;;;;;;13.11;56.40;98066.50;10387620;28;20236;-67
2023/10/25 21:37:00;;;;;;;4.50;1.60;;;;;;;11.83;58.19;98232.81;10387682;28;20232;-67
2023/10/25 21:42:02;;;;;;;2.40;1.40;;;;;;;12.96;55.72;98118.06;10386214;28;20318;-67
2023/10/25 21:47:04;;;;;;;1.40;1.40;;;;;;;13.68;54.32;98087.00;10382776;28;20233;-67
2023/10/25 21:52:08;;;;;;;1.50;1.40;;;;;;;12.67;56.07;98189.69;10386040;28;20659;-67
2023/10/25 21:57:09;;;;;;;1.57;1.37;;;;;;;12.26;56.82;98202.19;10387951;28;20235;-67
2023/10/25 22:02:11;;;;;;;1.70;1.30;;;;;;;13.37;55.19;98099.16;10385956;28;20266;-67
2023/10/25 22:07:13;;;;;;;2.30;1.40;;;;;;;13.22;55.13;98115.81;10387086;28;20229;-67
2023/10/25 22:12:15;;;;;;;1.60;1.50;;;;;;;13.05;55.34;98145.31;10386711;28;20240;-67
2023/10/25 22:17:17;;;;;;;1.53;1.43;;;;;;;13.14;55.10;98146.56;10385094;28;20626;-66
2023/10/25 22:22:19;;;;;;;1.77;1.50;;;;;;;12.99;55.56;98165.06;10389426;28;20781;-66
2023/10/25 22:27:21;;;;;;;1.40;1.40;;;;;;;12.52;55.72;98217.03;10383583;28;20259;-66
2023/10/25 22:32:22;;;;;;;1.40;1.40;;;;;;;13.22;55.24;98123.88;10388639;28;20587;-66
2023/10/25 22:37:24;;;;;;;1.70;1.60;;;;;;;12.78;55.63;98188.03;10386570;28;20251;-66
2023/10/25 22:42:26;;;;;;;1.60;1.50;;;;;;;12.62;55.04;98229.81;10385395;28;20624;-66
2023/10/25 22:47:28;;;;;;;1.40;1.40;;;;;;;12.95;55.52;98131.72;10384484;28;20310;-66
2023/10/25 22:52:29;;;;;;;1.40;1.30;;;;;;;12.59;54.99;98241.03;10388262;28;20278;-66
2023/10/25 22:57:31;;;;;;;1.53;1.40;;;;;;;12.40;56.18;98200.06;10387193;28;20556;-66
2023/10/25 23:02:33;;;;;;;1.60;1.50;;;;;;;12.00;56.69;98194.38;10387909;28;20641;-66
2023/10/25 23:07:35;;;;;;;1.60;1.50;;;;;;;12.26;56.43;98188.78;10386657;28;20240;-67
2023/10/25 23:12:36;;;;;;;1.50;1.40;;;;;;;11.82;56.10;98264.16;10388392;28;20327;-66
2023/10/25 23:17:38;;;;;;;1.83;1.70;;;;;;;11.35;57.15;98250.59;10384895;28;20748;-66
2023/10/25 23:22:40;;;;;;;1.77;1.67;;;;;;;11.14;56.75;98318.84;10388130;28;20333;-65
2023/10/25 23:27:42;;;;;;;1.30;1.30;;;;;;;12.20;55.14;98230.78;10382921;28;20236;-66